sensor_id;sensor_type;location;lat;lon;timestamp;pressure;altitude;pressure_sealevel;temperature;humidity
43701;BME280;58809;47.984;7.964;2022-12-24T00:02:50;96889.78;;;11.58;78.57
43701;BME280;58809;47.984;7.964;2022-12-24T00:05:52;96908.94;;;11.60;77.90
43701;BME280;58809;47.984;7.964;2022-12-24T00:08:53;96896.50;;;11.54;78.16
43701;BME280;58809;47.984;7.964;2022-12-24T00:11:55;96910.75;;;11.53;78.31
43701;BME280;58809;47.984;7.964;2022-12-24T00:14:57;96928.66;;;11.51;77.82
43701;BME280;58809;47.984;7.964;2022-12-24T00:17:58;96918.25;;;11.49;77.85
43701;BME280;58809;47.984;7.964;2022-12-24T00:21:00;96921.69;;;11.43;77.89
43701;BME280;58809;47.984;7.964;2022-12-24T00:24:04;96925.16;;;11.44;77.18
43701;BME280;58809;47.984;7.964;2022-12-24T00:27:06;96909.00;;;11.39;78.03
43701;BME280;58809;47.984;7.964;2022-12-24T00:30:08;96910.66;;;11.40;77.94
43701;BME280;58809;47.984;7.964;2022-12-24T00:33:10;96907.56;;;11.36;78.48
43701;BME280;58809;47.984;7.964;2022-12-24T00:36:11;96898.56;;;11.30;78.69
43701;BME280;58809;47.984;7.964;2022-12-24T00:39:13;96917.50;;;11.27;79.54
43701;BME280;58809;47.984;7.964;2022-12-24T00:42:14;96916.88;;;11.25;79.82
43701;BME280;58809;47.984;7.964;2022-12-24T00:45:16;96924.19;;;11.23;80.40
43701;BME280;58809;47.984;7.964;2022-12-24T00:48:18;96934.16;;;11.21;80.91
43701;BME280;58809;47.984;7.964;2022-12-24T00:51:20;96933.56;;;11.26;80.95
43701;BME280;58809;47.984;7.964;2022-12-24T00:54:22;96936.81;;;11.21;81.46
43701;BME280;58809;47.984;7.964;2022-12-24T00:57:23;96941.06;;;11.22;81.69
43701;BME280;58809;47.984;7.964;2022-12-24T01:00:25;96934.53;;;11.18;81.68
43701;BME280;58809;47.984;7.964;2022-12-24T01:03:27;96942.47;;;11.18;81.96
43701;BME280;58809;47.984;7.964;2022-12-24T01:06:37;96943.53;;;11.24;82.43
43701;BME280;58809;47.984;7.964;2022-12-24T01:09:39;96935.97;;;11.21;82.52
43701;BME280;58809;47.984;7.964;2022-12-24T01:12:40;96930.00;;;11.12;83.50
43701;BME280;58809;47.984;7.964;2022-12-24T01:15:42;96935.69;;;11.09;83.79
43701;BME280;58809;47.984;7.964;2022-12-24T01:18:44;96940.16;;;11.08;84.11
43701;BME280;58809;47.984;7.964;2022-12-24T01:21:45;96948.38;;;10.92;85.19
43701;BME280;58809;47.984;7.964;2022-12-24T01:24:47;96953.94;;;10.82;86.51
43701;BME280;58809;47.984;7.964;2022-12-24T01:27:48;96960.81;;;10.76;87.34
43701;BME280;58809;47.984;7.964;2022-12-24T01:30:50;96962.75;;;10.68;88.88
43701;BME280;58809;47.984;7.964;2022-12-24T01:33:51;96969.69;;;10.69;90.19
43701;BME280;58809;47.984;7.964;2022-12-24T01:36:53;96963.78;;;10.67;90.81
43701;BME280;58809;47.984;7.964;2022-12-24T01:39:54;96962.84;;;10.74;89.89
43701;BME280;58809;47.984;7.964;2022-12-24T01:43:21;96963.34;;;10.85;88.94
43701;BME280;58809;47.984;7.964;2022-12-24T01:46:28;96958.75;;;10.93;88.03
43701;BME280;58809;47.984;7.964;2022-12-24T01:49:33;96956.75;;;10.95;86.93
43701;BME280;58809;47.984;7.964;2022-12-24T01:52:35;96951.69;;;11.01;85.92
43701;BME280;58809;47.984;7.964;2022-12-24T01:55:38;96960.28;;;11.03;85.56
43701;BME280;58809;47.984;7.964;2022-12-24T01:58:42;96964.91;;;11.01;85.30
43701;BME280;58809;47.984;7.964;2022-12-24T02:01:48;96968.78;;;10.98;84.03
43701;BME280;58809;47.984;7.964;2022-12-24T02:05:02;96983.44;;;11.01;83.57
43701;BME280;58809;47.984;7.964;2022-12-24T02:08:06;96978.16;;;11.01;83.06
43701;BME280;58809;47.984;7.964;2022-12-24T02:11:13;96975.06;;;10.97;82.95
43701;BME280;58809;47.984;7.964;2022-12-24T02:14:16;96984.41;;;10.93;82.15
43701;BME280;58809;47.984;7.964;2022-12-24T02:21:18;97010.69;;;10.94;81.87
43701;BME280;58809;47.984;7.964;2022-12-24T02:24:40;97000.47;;;10.91;81.18
43701;BME280;58809;47.984;7.964;2022-12-24T02:27:59;97005.97;;;10.90;81.53
43701;BME280;58809;47.984;7.964;2022-12-24T02:31:22;97001.69;;;10.89;81.42
43701;BME280;58809;47.984;7.964;2022-12-24T02:34:29;97011.63;;;10.87;80.83
43701;BME280;58809;47.984;7.964;2022-12-24T02:37:36;97016.66;;;10.82;80.97
43701;BME280;58809;47.984;7.964;2022-12-24T02:41:01;97033.00;;;10.85;79.65
43701;BME280;58809;47.984;7.964;2022-12-24T02:44:04;97012.00;;;10.84;79.29
43701;BME280;58809;47.984;7.964;2022-12-24T02:47:06;97012.75;;;10.77;79.73
43701;BME280;58809;47.984;7.964;2022-12-24T02:50:10;97020.63;;;10.71;79.86
43701;BME280;58809;47.984;7.964;2022-12-24T02:53:12;97019.25;;;10.60;79.89
43701;BME280;58809;47.984;7.964;2022-12-24T02:56:23;97011.50;;;10.58;79.93
43701;BME280;58809;47.984;7.964;2022-12-24T02:59:41;96996.38;;;10.52;80.47
43701;BME280;58809;47.984;7.964;2022-12-24T03:03:09;97017.47;;;10.46;80.53
43701;BME280;58809;47.984;7.964;2022-12-24T03:09:26;97033.81;;;10.34;81.48
43701;BME280;58809;47.984;7.964;2022-12-24T03:12:33;97041.63;;;10.28;81.87
43701;BME280;58809;47.984;7.964;2022-12-24T03:15:37;97054.31;;;10.32;81.93
43701;BME280;58809;47.984;7.964;2022-12-24T03:18:43;97048.38;;;10.30;82.07
43701;BME280;58809;47.984;7.964;2022-12-24T03:21:47;97071.72;;;10.27;82.80
43701;BME280;58809;47.984;7.964;2022-12-24T03:24:50;97048.03;;;10.18;83.66
43701;BME280;58809;47.984;7.964;2022-12-24T03:27:51;97053.78;;;10.22;83.94
43701;BME280;58809;47.984;7.964;2022-12-24T03:30:54;97052.38;;;10.26;83.35
43701;BME280;58809;47.984;7.964;2022-12-24T03:33:55;97063.16;;;10.39;81.73
43701;BME280;58809;47.984;7.964;2022-12-24T03:36:58;97068.66;;;10.38;81.23
43701;BME280;58809;47.984;7.964;2022-12-24T03:39:59;97080.50;;;10.42;81.74
43701;BME280;58809;47.984;7.964;2022-12-24T03:43:01;97084.97;;;10.42;81.37
43701;BME280;58809;47.984;7.964;2022-12-24T03:46:06;97088.44;;;10.42;81.36
43701;BME280;58809;47.984;7.964;2022-12-24T03:49:08;97094.72;;;10.41;81.30
43701;BME280;58809;47.984;7.964;2022-12-24T03:52:09;97078.75;;;10.49;81.50
43701;BME280;58809;47.984;7.964;2022-12-24T03:55:11;97068.38;;;10.48;81.89
43701;BME280;58809;47.984;7.964;2022-12-24T03:58:12;97067.53;;;10.47;81.74
43701;BME280;58809;47.984;7.964;2022-12-24T04:01:15;97087.09;;;10.46;82.85
43701;BME280;58809;47.984;7.964;2022-12-24T04:04:17;97098.81;;;10.44;83.24
43701;BME280;58809;47.984;7.964;2022-12-24T04:07:18;97100.47;;;10.45;83.49
43701;BME280;58809;47.984;7.964;2022-12-24T04:10:20;97107.78;;;10.43;83.83
43701;BME280;58809;47.984;7.964;2022-12-24T04:13:21;97101.00;;;10.40;83.99
43701;BME280;58809;47.984;7.964;2022-12-24T04:16:23;97119.53;;;10.40;83.85
43701;BME280;58809;47.984;7.964;2022-12-24T04:19:25;97103.75;;;10.47;81.87
43701;BME280;58809;47.984;7.964;2022-12-24T04:22:26;97109.16;;;10.53;80.09
43701;BME280;58809;47.984;7.964;2022-12-24T04:25:28;97112.78;;;10.52;79.59
43701;BME280;58809;47.984;7.964;2022-12-24T04:28:31;97111.16;;;10.51;79.38
43701;BME280;58809;47.984;7.964;2022-12-24T04:31:32;97102.84;;;10.54;79.08
43701;BME280;58809;47.984;7.964;2022-12-24T04:34:35;97111.97;;;10.52;78.54
43701;BME280;58809;47.984;7.964;2022-12-24T04:37:36;97123.84;;;10.56;76.78
43701;BME280;58809;47.984;7.964;2022-12-24T04:40:38;97134.88;;;10.59;75.20
43701;BME280;58809;47.984;7.964;2022-12-24T04:43:39;97148.84;;;10.68;74.49
43701;BME280;58809;47.984;7.964;2022-12-24T04:46:41;97130.50;;;10.67;74.47
43701;BME280;58809;47.984;7.964;2022-12-24T04:49:42;97141.06;;;10.67;74.71
43701;BME280;58809;47.984;7.964;2022-12-24T04:52:44;97147.56;;;10.64;74.83
43701;BME280;58809;47.984;7.964;2022-12-24T04:55:46;97141.44;;;10.64;75.21
43701;BME280;58809;47.984;7.964;2022-12-24T04:58:48;97144.09;;;10.64;75.08
43701;BME280;58809;47.984;7.964;2022-12-24T05:01:49;97127.56;;;10.62;74.49
43701;BME280;58809;47.984;7.964;2022-12-24T05:04:51;97133.22;;;10.58;75.43
43701;BME280;58809;47.984;7.964;2022-12-24T05:07:53;97133.59;;;10.55;75.75
43701;BME280;58809;47.984;7.964;2022-12-24T05:10:56;97130.50;;;10.52;76.47
43701;BME280;58809;47.984;7.964;2022-12-24T05:13:58;97128.22;;;10.49;76.47
43701;BME280;58809;47.984;7.964;2022-12-24T05:17:00;97124.28;;;10.45;77.20
43701;BME280;58809;47.984;7.964;2022-12-24T05:20:03;97122.63;;;10.44;77.70
43701;BME280;58809;47.984;7.964;2022-12-24T05:23:04;97136.31;;;10.47;77.12
43701;BME280;58809;47.984;7.964;2022-12-24T05:26:43;97141.78;;;10.46;77.01
43701;BME280;58809;47.984;7.964;2022-12-24T05:29:46;97140.34;;;10.43;77.30
43701;BME280;58809;47.984;7.964;2022-12-24T05:32:47;97132.59;;;10.42;76.78
43701;BME280;58809;47.984;7.964;2022-12-24T05:35:51;97145.81;;;10.42;77.47
43701;BME280;58809;47.984;7.964;2022-12-24T05:38:52;97154.94;;;10.39;77.15
43701;BME280;58809;47.984;7.964;2022-12-24T05:41:54;97169.06;;;10.31;78.07
43701;BME280;58809;47.984;7.964;2022-12-24T05:44:56;97165.94;;;10.28;78.40
43701;BME280;58809;47.984;7.964;2022-12-24T05:47:57;97147.78;;;10.25;78.37
43701;BME280;58809;47.984;7.964;2022-12-24T05:50:59;97138.19;;;10.24;77.80
43701;BME280;58809;47.984;7.964;2022-12-24T05:54:03;97127.16;;;10.20;78.15
43701;BME280;58809;47.984;7.964;2022-12-24T05:57:05;97125.81;;;10.24;77.59
43701;BME280;58809;47.984;7.964;2022-12-24T06:00:07;97134.00;;;10.29;77.28
43701;BME280;58809;47.984;7.964;2022-12-24T06:03:12;97133.66;;;10.32;76.98
43701;BME280;58809;47.984;7.964;2022-12-24T06:06:16;97143.44;;;10.32;77.35
43701;BME280;58809;47.984;7.964;2022-12-24T06:09:19;97159.31;;;10.32;78.06
43701;BME280;58809;47.984;7.964;2022-12-24T06:12:21;97174.34;;;10.31;77.92
43701;BME280;58809;47.984;7.964;2022-12-24T06:15:22;97156.50;;;10.25;78.59
43701;BME280;58809;47.984;7.964;2022-12-24T06:18:25;97156.06;;;10.21;79.17
43701;BME280;58809;47.984;7.964;2022-12-24T06:21:26;97159.78;;;10.12;79.77
43701;BME280;58809;47.984;7.964;2022-12-24T06:24:28;97159.13;;;10.10;79.73
43701;BME280;58809;47.984;7.964;2022-12-24T06:27:29;97151.75;;;10.06;80.35
43701;BME280;58809;47.984;7.964;2022-12-24T06:30:31;97171.16;;;10.13;79.04
43701;BME280;58809;47.984;7.964;2022-12-24T06:33:33;97163.28;;;10.28;77.71
43701;BME280;58809;47.984;7.964;2022-12-24T06:36:34;97162.03;;;10.38;76.99
43701;BME280;58809;47.984;7.964;2022-12-24T06:39:36;97161.84;;;10.40;76.86
43701;BME280;58809;47.984;7.964;2022-12-24T06:42:38;97140.88;;;10.38;76.24
43701;BME280;58809;47.984;7.964;2022-12-24T06:45:42;97137.59;;;10.36;76.07
43701;BME280;58809;47.984;7.964;2022-12-24T06:48:45;97147.34;;;10.36;77.13
43701;BME280;58809;47.984;7.964;2022-12-24T06:51:46;97126.91;;;10.30;78.19
43701;BME280;58809;47.984;7.964;2022-12-24T06:54:48;97142.13;;;10.28;79.02
43701;BME280;58809;47.984;7.964;2022-12-24T06:57:49;97129.53;;;10.30;79.89
43701;BME280;58809;47.984;7.964;2022-12-24T07:00:51;97129.09;;;10.26;79.70
43701;BME280;58809;47.984;7.964;2022-12-24T07:03:52;97139.03;;;10.24;80.00
43701;BME280;58809;47.984;7.964;2022-12-24T07:06:54;97134.72;;;10.23;81.08
43701;BME280;58809;47.984;7.964;2022-12-24T07:09:56;97147.47;;;10.19;81.49
43701;BME280;58809;47.984;7.964;2022-12-24T07:12:57;97151.78;;;10.20;82.08
43701;BME280;58809;47.984;7.964;2022-12-24T07:16:01;97161.53;;;10.20;81.54
43701;BME280;58809;47.984;7.964;2022-12-24T07:19:03;97174.94;;;10.18;81.40
43701;BME280;58809;47.984;7.964;2022-12-24T07:22:05;97173.75;;;10.21;81.28
43701;BME280;58809;47.984;7.964;2022-12-24T07:25:15;97183.06;;;10.17;82.15
43701;BME280;58809;47.984;7.964;2022-12-24T07:28:17;97163.53;;;10.18;81.69
43701;BME280;58809;47.984;7.964;2022-12-24T07:31:27;97165.47;;;10.24;81.06
43701;BME280;58809;47.984;7.964;2022-12-24T07:34:29;97167.09;;;10.25;81.51
43701;BME280;58809;47.984;7.964;2022-12-24T07:37:30;97166.63;;;10.21;81.80
43701;BME280;58809;47.984;7.964;2022-12-24T07:40:33;97170.94;;;10.23;80.95
43701;BME280;58809;47.984;7.964;2022-12-24T07:43:35;97170.28;;;10.20;81.11
43701;BME280;58809;47.984;7.964;2022-12-24T07:46:37;97172.31;;;10.18;81.38
43701;BME280;58809;47.984;7.964;2022-12-24T07:49:38;97188.81;;;10.20;81.50
43701;BME280;58809;47.984;7.964;2022-12-24T07:52:40;97201.19;;;10.20;82.01
43701;BME280;58809;47.984;7.964;2022-12-24T07:55:41;97197.66;;;10.28;82.22
43701;BME280;58809;47.984;7.964;2022-12-24T07:58:43;97215.16;;;10.29;82.92
43701;BME280;58809;47.984;7.964;2022-12-24T08:01:45;97227.75;;;10.27;83.65
43701;BME280;58809;47.984;7.964;2022-12-24T08:04:47;97219.97;;;10.33;84.97
43701;BME280;58809;47.984;7.964;2022-12-24T08:07:48;97227.41;;;10.30;85.66
43701;BME280;58809;47.984;7.964;2022-12-24T08:10:50;97216.34;;;10.26;85.74
43701;BME280;58809;47.984;7.964;2022-12-24T08:13:52;97224.63;;;10.31;87.32
43701;BME280;58809;47.984;7.964;2022-12-24T08:16:54;97232.16;;;10.34;87.83
43701;BME280;58809;47.984;7.964;2022-12-24T08:19:55;97221.59;;;10.34;87.41
43701;BME280;58809;47.984;7.964;2022-12-24T08:22:57;97226.19;;;10.40;87.58
43701;BME280;58809;47.984;7.964;2022-12-24T08:25:58;97218.78;;;10.51;87.96
43701;BME280;58809;47.984;7.964;2022-12-24T08:29:01;97219.66;;;10.66;87.39
43701;BME280;58809;47.984;7.964;2022-12-24T08:32:03;97222.19;;;10.74;86.57
43701;BME280;58809;47.984;7.964;2022-12-24T08:35:05;97227.31;;;10.76;87.50
43701;BME280;58809;47.984;7.964;2022-12-24T08:38:07;97229.97;;;10.76;89.62
43701;BME280;58809;47.984;7.964;2022-12-24T08:41:08;97227.16;;;10.77;89.62
43701;BME280;58809;47.984;7.964;2022-12-24T08:44:10;97226.88;;;10.87;89.82
43701;BME280;58809;47.984;7.964;2022-12-24T08:47:12;97225.50;;;10.91;90.42
43701;BME280;58809;47.984;7.964;2022-12-24T08:50:13;97224.84;;;10.89;90.64
43701;BME280;58809;47.984;7.964;2022-12-24T08:53:15;97216.63;;;10.84;91.24
43701;BME280;58809;47.984;7.964;2022-12-24T08:56:17;97226.97;;;10.79;91.54
43701;BME280;58809;47.984;7.964;2022-12-24T08:59:18;97238.09;;;10.74;91.23
43701;BME280;58809;47.984;7.964;2022-12-24T09:02:20;97245.22;;;10.74;91.47
43701;BME280;58809;47.984;7.964;2022-12-24T09:05:22;97244.91;;;10.69;91.66
43701;BME280;58809;47.984;7.964;2022-12-24T09:08:24;97240.81;;;10.66;91.81
43701;BME280;58809;47.984;7.964;2022-12-24T09:11:26;97244.19;;;10.75;91.91
43701;BME280;58809;47.984;7.964;2022-12-24T09:14:28;97255.06;;;10.95;90.44
43701;BME280;58809;47.984;7.964;2022-12-24T09:17:30;97257.66;;;11.03;89.97
43701;BME280;58809;47.984;7.964;2022-12-24T09:20:31;97254.88;;;11.11;89.60
43701;BME280;58809;47.984;7.964;2022-12-24T09:23:35;97265.41;;;11.20;88.63
43701;BME280;58809;47.984;7.964;2022-12-24T09:26:36;97274.72;;;11.30;87.57
43701;BME280;58809;47.984;7.964;2022-12-24T09:29:40;97282.91;;;11.35;86.99
43701;BME280;58809;47.984;7.964;2022-12-24T09:32:42;97289.13;;;11.43;85.98
43701;BME280;58809;47.984;7.964;2022-12-24T09:35:43;97296.09;;;11.44;85.97
43701;BME280;58809;47.984;7.964;2022-12-24T09:38:45;97294.25;;;11.44;84.83
43701;BME280;58809;47.984;7.964;2022-12-24T09:42:08;97287.97;;;11.30;84.69
43701;BME280;58809;47.984;7.964;2022-12-24T09:45:21;97295.53;;;11.33;85.63
43701;BME280;58809;47.984;7.964;2022-12-24T09:48:44;97305.41;;;11.40;84.54
43701;BME280;58809;47.984;7.964;2022-12-24T09:51:55;97309.88;;;11.39;84.18
43701;BME280;58809;47.984;7.964;2022-12-24T09:55:03;97313.25;;;11.33;84.38
43701;BME280;58809;47.984;7.964;2022-12-24T09:58:06;97320.28;;;11.26;84.32
43701;BME280;58809;47.984;7.964;2022-12-24T10:01:14;97318.72;;;11.31;84.23
43701;BME280;58809;47.984;7.964;2022-12-24T10:04:18;97311.06;;;11.36;82.44
43701;BME280;58809;47.984;7.964;2022-12-24T10:10:54;97303.19;;;11.58;81.20
43701;BME280;58809;47.984;7.964;2022-12-24T10:14:19;97289.56;;;11.61;80.49
43701;BME280;58809;47.984;7.964;2022-12-24T10:24:38;97289.16;;;11.94;77.44
43701;BME280;58809;47.984;7.964;2022-12-24T10:27:53;97287.69;;;11.91;77.07
43701;BME280;58809;47.984;7.964;2022-12-24T10:31:00;97284.75;;;12.01;76.81
43701;BME280;58809;47.984;7.964;2022-12-24T10:34:23;97294.63;;;12.07;75.76
43701;BME280;58809;47.984;7.964;2022-12-24T10:37:27;97287.56;;;12.15;75.74
43701;BME280;58809;47.984;7.964;2022-12-24T10:40:40;97287.09;;;12.11;75.35
43701;BME280;58809;47.984;7.964;2022-12-24T10:43:44;97291.00;;;12.15;75.62
43701;BME280;58809;47.984;7.964;2022-12-24T10:46:47;97291.19;;;12.13;75.37
43701;BME280;58809;47.984;7.964;2022-12-24T10:49:56;97297.25;;;12.07;74.88
43701;BME280;58809;47.984;7.964;2022-12-24T10:56:40;97301.63;;;12.37;73.58
43701;BME280;58809;47.984;7.964;2022-12-24T10:59:50;97308.06;;;12.49;72.61
43701;BME280;58809;47.984;7.964;2022-12-24T11:06:14;97329.19;;;12.57;72.12
43701;BME280;58809;47.984;7.964;2022-12-24T11:09:27;97326.38;;;12.65;71.29
43701;BME280;58809;47.984;7.964;2022-12-24T11:12:50;97330.50;;;12.68;70.67
43701;BME280;58809;47.984;7.964;2022-12-24T11:16:31;97321.00;;;12.80;69.90
43701;BME280;58809;47.984;7.964;2022-12-24T11:19:37;97317.81;;;12.92;69.69
43701;BME280;58809;47.984;7.964;2022-12-24T11:22:47;97312.06;;;13.16;68.74
43701;BME280;58809;47.984;7.964;2022-12-24T11:25:50;97303.63;;;13.34;67.56
43701;BME280;58809;47.984;7.964;2022-12-24T11:29:15;97294.06;;;13.18;65.87
43701;BME280;58809;47.984;7.964;2022-12-24T11:32:20;97309.00;;;13.19;67.15
43701;BME280;58809;47.984;7.964;2022-12-24T11:35:23;97314.09;;;13.14;66.77
43701;BME280;58809;47.984;7.964;2022-12-24T11:38:26;97319.56;;;13.06;66.36
43701;BME280;58809;47.984;7.964;2022-12-24T11:41:35;97310.91;;;12.97;65.94
43701;BME280;58809;47.984;7.964;2022-12-24T11:44:46;97299.22;;;12.92;66.02
43701;BME280;58809;47.984;7.964;2022-12-24T11:47:49;97303.47;;;12.86;66.28
43701;BME280;58809;47.984;7.964;2022-12-24T11:51:19;97293.03;;;12.84;65.88
43701;BME280;58809;47.984;7.964;2022-12-24T11:54:29;97292.00;;;12.85;65.64
43701;BME280;58809;47.984;7.964;2022-12-24T11:57:42;97297.31;;;12.85;65.85
43701;BME280;58809;47.984;7.964;2022-12-24T12:00:47;97294.78;;;12.70;66.13
43701;BME280;58809;47.984;7.964;2022-12-24T12:03:56;97277.28;;;12.55;66.70
43701;BME280;58809;47.984;7.964;2022-12-24T12:07:18;97290.84;;;12.38;66.72
43701;BME280;58809;47.984;7.964;2022-12-24T12:10:26;97289.28;;;12.29;67.21
43701;BME280;58809;47.984;7.964;2022-12-24T12:13:30;97287.34;;;12.16;67.10
43701;BME280;58809;47.984;7.964;2022-12-24T12:16:47;97290.94;;;12.08;67.07
43701;BME280;58809;47.984;7.964;2022-12-24T12:20:34;97295.28;;;12.16;66.92
43701;BME280;58809;47.984;7.964;2022-12-24T12:23:56;97286.41;;;12.24;66.53
43701;BME280;58809;47.984;7.964;2022-12-24T12:27:19;97290.59;;;12.33;65.68
43701;BME280;58809;47.984;7.964;2022-12-24T12:30:22;97293.59;;;12.51;65.21
43701;BME280;58809;47.984;7.964;2022-12-24T12:33:39;97286.34;;;12.60;64.85
43701;BME280;58809;47.984;7.964;2022-12-24T12:36:49;97283.88;;;12.59;64.66
43701;BME280;58809;47.984;7.964;2022-12-24T12:39:51;97286.72;;;12.57;64.88
43701;BME280;58809;47.984;7.964;2022-12-24T12:43:04;97291.56;;;12.54;64.75
43701;BME280;58809;47.984;7.964;2022-12-24T12:46:57;97278.94;;;12.56;64.90
43701;BME280;58809;47.984;7.964;2022-12-24T12:56:57;97269.78;;;12.37;65.29
43701;BME280;58809;47.984;7.964;2022-12-24T13:00:05;97265.16;;;12.45;65.35
43701;BME280;58809;47.984;7.964;2022-12-24T13:13:50;97260.84;;;12.66;64.53
43701;BME280;58809;47.984;7.964;2022-12-24T13:20:24;97267.13;;;12.86;63.70
43701;BME280;58809;47.984;7.964;2022-12-24T13:23:27;97256.75;;;12.92;63.72
43701;BME280;58809;47.984;7.964;2022-12-24T13:26:28;97257.50;;;12.85;64.11
43701;BME280;58809;47.984;7.964;2022-12-24T13:32:53;97259.69;;;12.75;64.21
43701;BME280;58809;47.984;7.964;2022-12-24T13:35:57;97246.34;;;12.68;64.43
43701;BME280;58809;47.984;7.964;2022-12-24T13:39:00;97248.31;;;12.60;64.65
43701;BME280;58809;47.984;7.964;2022-12-24T13:42:01;97242.66;;;12.41;64.96
43701;BME280;58809;47.984;7.964;2022-12-24T13:48:32;97240.97;;;12.33;64.71
43701;BME280;58809;47.984;7.964;2022-12-24T13:51:34;97236.63;;;12.26;65.15
43701;BME280;58809;47.984;7.964;2022-12-24T13:54:40;97244.34;;;12.21;66.05
43701;BME280;58809;47.984;7.964;2022-12-24T13:57:46;97249.28;;;12.24;66.33
43701;BME280;58809;47.984;7.964;2022-12-24T14:01:09;97259.47;;;12.27;66.25
43701;BME280;58809;47.984;7.964;2022-12-24T14:04:23;97261.50;;;12.25;66.32
43701;BME280;58809;47.984;7.964;2022-12-24T14:07:26;97275.41;;;12.27;67.11
43701;BME280;58809;47.984;7.964;2022-12-24T14:10:38;97268.47;;;12.26;66.44
43701;BME280;58809;47.984;7.964;2022-12-24T14:16:46;97267.69;;;12.10;66.95
43701;BME280;58809;47.984;7.964;2022-12-24T14:19:53;97265.81;;;12.04;67.38
43701;BME280;58809;47.984;7.964;2022-12-24T14:22:56;97267.19;;;12.00;67.72
43701;BME280;58809;47.984;7.964;2022-12-24T14:26:00;97264.03;;;11.90;68.20
43701;BME280;58809;47.984;7.964;2022-12-24T14:29:04;97264.84;;;11.75;69.21
43701;BME280;58809;47.984;7.964;2022-12-24T14:32:13;97263.25;;;11.60;70.73
43701;BME280;58809;47.984;7.964;2022-12-24T14:35:23;97259.44;;;11.47;73.48
43701;BME280;58809;47.984;7.964;2022-12-24T14:38:26;97255.69;;;11.42;74.99
43701;BME280;58809;47.984;7.964;2022-12-24T14:41:43;97252.97;;;11.35;77.04
43701;BME280;58809;47.984;7.964;2022-12-24T14:48:44;97258.38;;;11.27;80.78
43701;BME280;58809;47.984;7.964;2022-12-24T14:54:59;97253.44;;;11.09;84.95
43701;BME280;58809;47.984;7.964;2022-12-24T14:58:20;97245.41;;;11.02;86.97
43701;BME280;58809;47.984;7.964;2022-12-24T15:01:31;97250.22;;;10.98;87.65
43701;BME280;58809;47.984;7.964;2022-12-24T15:04:34;97271.97;;;10.94;88.29
43701;BME280;58809;47.984;7.964;2022-12-24T15:07:39;97262.66;;;10.83;89.81
43701;BME280;58809;47.984;7.964;2022-12-24T15:10:52;97272.50;;;10.74;91.03
43701;BME280;58809;47.984;7.964;2022-12-24T15:13:57;97267.53;;;10.71;91.83
43701;BME280;58809;47.984;7.964;2022-12-24T15:17:02;97260.97;;;10.67;91.72
43701;BME280;58809;47.984;7.964;2022-12-24T15:20:06;97257.06;;;10.63;91.58
43701;BME280;58809;47.984;7.964;2022-12-24T15:23:17;97260.22;;;10.58;90.51
43701;BME280;58809;47.984;7.964;2022-12-24T15:26:23;97265.25;;;10.53;91.14
43701;BME280;58809;47.984;7.964;2022-12-24T15:29:30;97267.91;;;10.53;90.88
43701;BME280;58809;47.984;7.964;2022-12-24T15:32:33;97273.19;;;10.53;91.30
43701;BME280;58809;47.984;7.964;2022-12-24T15:38:50;97272.44;;;10.45;92.14
43701;BME280;58809;47.984;7.964;2022-12-24T15:41:53;97278.78;;;10.35;93.01
43701;BME280;58809;47.984;7.964;2022-12-24T15:45:26;97288.56;;;10.35;92.64
43701;BME280;58809;47.984;7.964;2022-12-24T15:48:30;97291.88;;;10.29;93.66
43701;BME280;58809;47.984;7.964;2022-12-24T15:51:35;97310.53;;;10.27;93.35
43701;BME280;58809;47.984;7.964;2022-12-24T15:54:45;97315.03;;;10.27;93.06
43701;BME280;58809;47.984;7.964;2022-12-24T15:57:52;97320.19;;;10.20;92.46
43701;BME280;58809;47.984;7.964;2022-12-24T16:01:05;97332.56;;;10.28;92.68
43701;BME280;58809;47.984;7.964;2022-12-24T16:04:25;97332.06;;;10.24;92.59
43701;BME280;58809;47.984;7.964;2022-12-24T16:07:27;97334.91;;;10.23;93.35
43701;BME280;58809;47.984;7.964;2022-12-24T16:10:50;97337.72;;;10.21;93.27
43701;BME280;58809;47.984;7.964;2022-12-24T16:16:57;97334.25;;;10.20;91.47
43701;BME280;58809;47.984;7.964;2022-12-24T16:20:02;97346.81;;;10.18;91.66
43701;BME280;58809;47.984;7.964;2022-12-24T16:23:15;97341.56;;;10.10;92.37
43701;BME280;58809;47.984;7.964;2022-12-24T16:26:18;97345.44;;;9.99;93.15
43701;BME280;58809;47.984;7.964;2022-12-24T16:29:20;97346.25;;;10.00;94.93
43701;BME280;58809;47.984;7.964;2022-12-24T16:32:33;97351.91;;;9.97;94.78
43701;BME280;58809;47.984;7.964;2022-12-24T16:35:36;97348.78;;;9.93;94.84
43701;BME280;58809;47.984;7.964;2022-12-24T16:38:38;97337.47;;;9.76;94.47
43701;BME280;58809;47.984;7.964;2022-12-24T16:42:00;97339.41;;;9.82;90.63
43701;BME280;58809;47.984;7.964;2022-12-24T16:45:21;97340.03;;;9.93;89.81
43701;BME280;58809;47.984;7.964;2022-12-24T16:48:23;97348.59;;;9.95;90.08
43701;BME280;58809;47.984;7.964;2022-12-24T16:51:25;97354.06;;;9.93;89.85
43701;BME280;58809;47.984;7.964;2022-12-24T16:54:27;97351.25;;;9.95;89.24
43701;BME280;58809;47.984;7.964;2022-12-24T16:57:32;97353.72;;;9.96;88.16
43701;BME280;58809;47.984;7.964;2022-12-24T17:00:33;97360.34;;;9.92;87.62
43701;BME280;58809;47.984;7.964;2022-12-24T17:03:36;97361.81;;;9.95;87.09
43701;BME280;58809;47.984;7.964;2022-12-24T17:06:38;97362.00;;;9.93;86.13
43701;BME280;58809;47.984;7.964;2022-12-24T17:09:40;97366.47;;;9.93;86.17
43701;BME280;58809;47.984;7.964;2022-12-24T17:12:42;97367.44;;;9.92;85.73
43701;BME280;58809;47.984;7.964;2022-12-24T17:15:44;97359.84;;;9.89;85.69
43701;BME280;58809;47.984;7.964;2022-12-24T17:18:45;97376.19;;;9.92;85.83
43701;BME280;58809;47.984;7.964;2022-12-24T17:21:47;97375.72;;;9.89;85.97
43701;BME280;58809;47.984;7.964;2022-12-24T17:24:49;97367.13;;;9.87;85.83
43701;BME280;58809;47.984;7.964;2022-12-24T17:27:50;97372.22;;;9.96;85.58
43701;BME280;58809;47.984;7.964;2022-12-24T17:30:52;97372.91;;;9.90;85.20
43701;BME280;58809;47.984;7.964;2022-12-24T17:33:54;97371.91;;;9.91;85.32